Denton, TX (76205)

12:43 PM CST on January 27, 2015 (GMT -0600)
Oakmont II Estates | Change Station
CLOSE
Current Station
Personal Weather Station
Location: Denton, TX
Elevation: 646 ft
Nearby Weather Stations

Elev 646 ft 33.16 °N, 97.09 °W | Updated 3 minutes ago

Clear
Clear
77.4 °F
Feels Like 78 °F
N
3.7
Wind Variable Wind from SSE

Today
High -- | Low -- °F
--% Chance of Precip.
Yesterday
High -- | Low -- °F
Precip. -- in
7:27 AM 5:55 PM
First Quarter, 56% visible
Pressure 30.17 in
Visibility 10.0 miles
Clouds Clear
Heat Index 78 °F
Dew Point 43 °F
Humidity 29%
Rainfall 0.00 in
Snow Depth Not available.
UV 5 out of 12
Pollen 7.60 out of 12
Air Quality Not available.
Flu Activity Not available.
METAR KDTO 271753Z 09004KT 10SM CLR 21/04 A3018 RMK AO2 SLP214 T02110039 10211 20044 50002

More Conditions Fewer Conditions

Pressure 30.17 in
Visibility 10.0 miles
Clouds Clear
Heat Index 78 °F
Dew Point 43 °F
Humidity 29%
Rainfall 0.00 in
Snow Depth Not available.
UV 5 out of 12
Pollen 7.60 out of 12
Air Quality Not available.
Flu Activity Not available.
METAR KDTO 271753Z 09004KT 10SM CLR 21/04 A3018 RMK AO2 SLP214 T02110039 10211 20044 50002

More Conditions Fewer Conditions

10-Day Weather Forecast

Almanac

Astronomy

Jan. 27, 2015 Rise Set
Actual Time
Civil Twilight
Nautical Twilight
Astronomical Twilight
Moon
Length of Visible Light
Length of Day
Tomorrow will be .
, % of the Moon is Illuminated

Today's Extremes

State Highs State Lows

Community

WunderPhotos

Upload Photos

1,790,776 photos uploaded!

WunderBlogs® & News

Nearby

Air Quality

  Air Quality AQ Index Pollutant
Not available.

Snow Depth

Station Depth Elevation

Earthquake Activity

City Distance Mag. Time & Date
Minimum magnitude displayed is 2.5.

Coastal Water Temperatures

Place Temperature

Nearby Weather Stations